Arlington, VT (05250)

12:14 PM EST on January 31, 2015 (GMT -0500)
Base of Red Mountain | Change Station
CLOSE
Current Station
Personal Weather Station
Location: Arlington, VT
Elevation: 867 ft
Nearby Weather Stations
Active Advisory: Winter Storm Watch Active Notice: Public Information Statement

Elev 867 ft 43.10 °N, 73.19 °W | Updated 4 minutes ago

Clear
Clear
7.2 °F
Feels Like -2 °F
N
5.0
Wind Variable Wind from NW
Gusts 10.0 mph

Today
High -- | Low -- °F
--% Chance of Precip.
Yesterday
High -- | Low -- °F
Precip. -- in
7:09 AM 5:03 PM
Waxing Gibbous, 90% visible
Pressure 30.14 in
Visibility 10.0 miles
Clouds Clear
Windchill -2 °F
Dew Point -5 °F
Humidity 56%
Rainfall -999.00 in
Snow Depth Not available.
UV 3 out of 12
Pollen .10 out of 12
Air Quality Not available.
Flu Activity Not available.
METAR KDDH 311654Z AUTO 27010KT 10SM CLR M15/M24 A3008 RMK AO2 SLP205 T11501239

More Conditions Fewer Conditions

Pressure 30.14 in
Visibility 10.0 miles
Clouds Clear
Windchill -2 °F
Dew Point -5 °F
Humidity 56%
Rainfall -999.00 in
Snow Depth Not available.
UV 3 out of 12
Pollen .10 out of 12
Air Quality Not available.
Flu Activity Not available.
METAR KDDH 311654Z AUTO 27010KT 10SM CLR M15/M24 A3008 RMK AO2 SLP205 T11501239

More Conditions Fewer Conditions

10-Day Weather Forecast

Almanac

Astronomy

Jan. 31, 2015 Rise Set
Actual Time
Civil Twilight
Nautical Twilight
Astronomical Twilight
Moon
Length of Visible Light
Length of Day
Tomorrow will be .
, % of the Moon is Illuminated

Today's Extremes

State Highs State Lows

Community

WunderPhotos

Upload Photos

1,792,122 photos uploaded!

WunderBlogs® & News

Nearby

Air Quality

  Air Quality AQ Index Pollutant
Not available.

Snow Depth

Station Depth Elevation

Earthquake Activity

City Distance Mag. Time & Date
Minimum magnitude displayed is 2.5.

Coastal Water Temperatures

Place Temperature

Nearby Weather Stations